sensor_id;sensor_type;location;lat;lon;timestamp;temperature;humidity
4677;DHT22;2352;48.180;11.478;2024-03-08T00:00:32;3.70;68.50
4677;DHT22;2352;48.180;11.478;2024-03-08T00:05:35;3.80;68.50
4677;DHT22;2352;48.180;11.478;2024-03-08T00:10:40;3.70;68.20
4677;DHT22;2352;48.180;11.478;2024-03-08T00:15:44;3.60;68.50
4677;DHT22;2352;48.180;11.478;2024-03-08T00:20:47;3.80;68.10
4677;DHT22;2352;48.180;11.478;2024-03-08T00:25:51;3.60;68.20
4677;DHT22;2352;48.180;11.478;2024-03-08T00:30:57;3.50;68.60
4677;DHT22;2352;48.180;11.478;2024-03-08T00:35:59;3.50;68.50
4677;DHT22;2352;48.180;11.478;2024-03-08T00:41:03;3.50;68.50
4677;DHT22;2352;48.180;11.478;2024-03-08T00:46:07;3.30;68.80
4677;DHT22;2352;48.180;11.478;2024-03-08T00:51:10;3.40;68.80
4677;DHT22;2352;48.180;11.478;2024-03-08T00:56:13;3.50;68.70
4677;DHT22;2352;48.180;11.478;2024-03-08T01:01:18;3.40;68.80
4677;DHT22;2352;48.180;11.478;2024-03-08T01:06:21;3.40;68.80
4677;DHT22;2352;48.180;11.478;2024-03-08T01:11:24;3.40;68.80
4677;DHT22;2352;48.180;11.478;2024-03-08T01:16:28;3.40;68.70
4677;DHT22;2352;48.180;11.478;2024-03-08T01:21:31;3.40;68.40
4677;DHT22;2352;48.180;11.478;2024-03-08T01:26:34;3.40;68.70
4677;DHT22;2352;48.180;11.478;2024-03-08T01:31:39;3.40;68.60
4677;DHT22;2352;48.180;11.478;2024-03-08T01:36:42;3.40;68.30
4677;DHT22;2352;48.180;11.478;2024-03-08T01:41:44;3.20;68.70
4677;DHT22;2352;48.180;11.478;2024-03-08T01:46:50;3.30;68.80
4677;DHT22;2352;48.180;11.478;2024-03-08T01:51:55;3.20;69.00
4677;DHT22;2352;48.180;11.478;2024-03-08T01:56:58;3.30;68.70
4677;DHT22;2352;48.180;11.478;2024-03-08T02:02:03;3.10;69.40
4677;DHT22;2352;48.180;11.478;2024-03-08T02:07:07;3.00;69.70
4677;DHT22;2352;48.180;11.478;2024-03-08T02:12:12;2.90;69.90
4677;DHT22;2352;48.180;11.478;2024-03-08T02:17:16;3.00;69.40
4677;DHT22;2352;48.180;11.478;2024-03-08T02:22:20;3.10;69.50
4677;DHT22;2352;48.180;11.478;2024-03-08T02:27:23;3.10;69.30
4677;DHT22;2352;48.180;11.478;2024-03-08T02:32:27;3.00;69.60
4677;DHT22;2352;48.180;11.478;2024-03-08T02:37:31;3.10;69.40
4677;DHT22;2352;48.180;11.478;2024-03-08T02:42:34;2.90;69.80
4677;DHT22;2352;48.180;11.478;2024-03-08T02:47:37;2.90;69.80
4677;DHT22;2352;48.180;11.478;2024-03-08T02:52:41;2.80;70.00
4677;DHT22;2352;48.180;11.478;2024-03-08T02:57:44;3.00;70.00
4677;DHT22;2352;48.180;11.478;2024-03-08T03:02:48;2.90;69.80
4677;DHT22;2352;48.180;11.478;2024-03-08T03:07:55;2.90;69.80
4677;DHT22;2352;48.180;11.478;2024-03-08T03:12:59;2.90;69.90
4677;DHT22;2352;48.180;11.478;2024-03-08T03:18:02;2.90;69.90
4677;DHT22;2352;48.180;11.478;2024-03-08T03:23:06;2.80;70.00
4677;DHT22;2352;48.180;11.478;2024-03-08T03:28:11;2.90;70.10
4677;DHT22;2352;48.180;11.478;2024-03-08T03:33:16;2.90;69.80
4677;DHT22;2352;48.180;11.478;2024-03-08T03:38:21;2.70;70.30
4677;DHT22;2352;48.180;11.478;2024-03-08T03:43:25;2.60;70.60
4677;DHT22;2352;48.180;11.478;2024-03-08T03:48:28;2.60;70.20
4677;DHT22;2352;48.180;11.478;2024-03-08T03:53:32;2.50;70.60
4677;DHT22;2352;48.180;11.478;2024-03-08T03:58:35;2.70;70.10
4677;DHT22;2352;48.180;11.478;2024-03-08T04:03:41;2.60;70.50
4677;DHT22;2352;48.180;11.478;2024-03-08T04:08:46;2.60;70.40
4677;DHT22;2352;48.180;11.478;2024-03-08T04:13:49;2.60;70.50
4677;DHT22;2352;48.180;11.478;2024-03-08T04:18:52;2.60;70.50
4677;DHT22;2352;48.180;11.478;2024-03-08T04:23:56;2.60;70.50
4677;DHT22;2352;48.180;11.478;2024-03-08T04:28:59;2.60;70.50
4677;DHT22;2352;48.180;11.478;2024-03-08T04:34:03;2.60;70.50
4677;DHT22;2352;48.180;11.478;2024-03-08T04:39:08;2.60;70.60
4677;DHT22;2352;48.180;11.478;2024-03-08T04:44:14;2.60;70.60
4677;DHT22;2352;48.180;11.478;2024-03-08T04:49:17;2.70;70.80
4677;DHT22;2352;48.180;11.478;2024-03-08T04:54:22;2.60;70.70
4677;DHT22;2352;48.180;11.478;2024-03-08T04:59:25;2.60;70.70
4677;DHT22;2352;48.180;11.478;2024-03-08T05:04:29;2.60;70.90
4677;DHT22;2352;48.180;11.478;2024-03-08T05:09:33;2.70;71.00
4677;DHT22;2352;48.180;11.478;2024-03-08T05:14:37;2.60;71.10
4677;DHT22;2352;48.180;11.478;2024-03-08T05:19:41;2.60;71.30
4677;DHT22;2352;48.180;11.478;2024-03-08T05:24:45;2.70;71.30
4677;DHT22;2352;48.180;11.478;2024-03-08T05:29:48;2.70;71.10
4677;DHT22;2352;48.180;11.478;2024-03-08T05:34:51;2.70;71.40
4677;DHT22;2352;48.180;11.478;2024-03-08T05:39:55;2.70;71.50
4677;DHT22;2352;48.180;11.478;2024-03-08T05:44:58;2.60;71.70
4677;DHT22;2352;48.180;11.478;2024-03-08T05:50:01;2.80;71.30
4677;DHT22;2352;48.180;11.478;2024-03-08T05:55:07;2.80;71.10
4677;DHT22;2352;48.180;11.478;2024-03-08T06:00:12;2.80;71.20
4677;DHT22;2352;48.180;11.478;2024-03-08T06:05:17;2.70;71.50
4677;DHT22;2352;48.180;11.478;2024-03-08T06:10:22;2.50;71.90
4677;DHT22;2352;48.180;11.478;2024-03-08T06:15:25;2.60;71.80
4677;DHT22;2352;48.180;11.478;2024-03-08T06:20:28;2.60;71.60
4677;DHT22;2352;48.180;11.478;2024-03-08T06:25:32;2.60;72.00
4677;DHT22;2352;48.180;11.478;2024-03-08T06:30:36;2.60;71.60
4677;DHT22;2352;48.180;11.478;2024-03-08T06:35:39;2.70;71.40
4677;DHT22;2352;48.180;11.478;2024-03-08T06:40:45;2.90;71.20
4677;DHT22;2352;48.180;11.478;2024-03-08T06:45:49;2.70;71.40
4677;DHT22;2352;48.180;11.478;2024-03-08T06:50:52;2.70;71.80
4677;DHT22;2352;48.180;11.478;2024-03-08T06:55:57;2.90;71.30
4677;DHT22;2352;48.180;11.478;2024-03-08T07:01:00;3.10;70.80
4677;DHT22;2352;48.180;11.478;2024-03-08T07:06:06;3.20;70.60
4677;DHT22;2352;48.180;11.478;2024-03-08T07:11:11;3.30;70.30
4677;DHT22;2352;48.180;11.478;2024-03-08T07:16:14;3.40;69.80
4677;DHT22;2352;48.180;11.478;2024-03-08T07:21:17;3.40;70.00
4677;DHT22;2352;48.180;11.478;2024-03-08T07:26:22;3.20;70.30
4677;DHT22;2352;48.180;11.478;2024-03-08T07:31:25;3.40;70.10
4677;DHT22;2352;48.180;11.478;2024-03-08T07:36:39;3.40;70.30
4677;DHT22;2352;48.180;11.478;2024-03-08T07:41:44;3.40;70.30
4677;DHT22;2352;48.180;11.478;2024-03-08T07:46:47;3.70;70.20
4677;DHT22;2352;48.180;11.478;2024-03-08T07:51:50;3.60;70.30
4677;DHT22;2352;48.180;11.478;2024-03-08T07:56:54;3.90;69.60
4677;DHT22;2352;48.180;11.478;2024-03-08T08:01:57;4.10;69.50
4677;DHT22;2352;48.180;11.478;2024-03-08T08:07:01;4.20;68.80
4677;DHT22;2352;48.180;11.478;2024-03-08T08:12:06;4.30;68.80
4677;DHT22;2352;48.180;11.478;2024-03-08T08:17:11;4.30;68.90
4677;DHT22;2352;48.180;11.478;2024-03-08T08:22:14;4.50;69.20
4677;DHT22;2352;48.180;11.478;2024-03-08T08:27:18;5.00;71.90
4677;DHT22;2352;48.180;11.478;2024-03-08T08:32:22;5.50;72.70
4677;DHT22;2352;48.180;11.478;2024-03-08T08:37:25;5.80;69.50
4677;DHT22;2352;48.180;11.478;2024-03-08T08:42:29;6.30;69.00
4677;DHT22;2352;48.180;11.478;2024-03-08T08:47:32;6.40;66.40
4677;DHT22;2352;48.180;11.478;2024-03-08T08:52:35;6.10;66.10
4677;DHT22;2352;48.180;11.478;2024-03-08T08:57:42;6.40;65.70
4677;DHT22;2352;48.180;11.478;2024-03-08T09:02:46;6.80;65.80
4677;DHT22;2352;48.180;11.478;2024-03-08T09:07:50;6.90;64.50
4677;DHT22;2352;48.180;11.478;2024-03-08T09:12:54;6.90;64.40
4677;DHT22;2352;48.180;11.478;2024-03-08T09:17:57;7.00;63.80
4677;DHT22;2352;48.180;11.478;2024-03-08T09:23:01;7.30;64.40
4677;DHT22;2352;48.180;11.478;2024-03-08T09:28:05;7.50;62.40
4677;DHT22;2352;48.180;11.478;2024-03-08T09:33:08;7.80;63.00
4677;DHT22;2352;48.180;11.478;2024-03-08T09:38:12;8.00;61.60
4677;DHT22;2352;48.180;11.478;2024-03-08T09:43:16;8.30;61.70
4677;DHT22;2352;48.180;11.478;2024-03-08T09:48:23;8.40;62.20
4677;DHT22;2352;48.180;11.478;2024-03-08T09:53:28;8.50;62.00
4677;DHT22;2352;48.180;11.478;2024-03-08T09:58:33;8.60;61.50
4677;DHT22;2352;48.180;11.478;2024-03-08T10:03:54;8.90;59.70
4677;DHT22;2352;48.180;11.478;2024-03-08T10:08:57;8.90;60.20
4677;DHT22;2352;48.180;11.478;2024-03-08T10:14:02;9.10;60.30
4677;DHT22;2352;48.180;11.478;2024-03-08T10:19:05;9.40;60.60
4677;DHT22;2352;48.180;11.478;2024-03-08T10:24:10;9.90;60.70
4677;DHT22;2352;48.180;11.478;2024-03-08T10:29:16;10.30;58.30
4677;DHT22;2352;48.180;11.478;2024-03-08T10:34:20;10.00;58.60
4677;DHT22;2352;48.180;11.478;2024-03-08T10:39:25;10.50;57.50
4677;DHT22;2352;48.180;11.478;2024-03-08T10:44:43;10.70;57.40
4677;DHT22;2352;48.180;11.478;2024-03-08T10:49:52;11.20;56.60
4677;DHT22;2352;48.180;11.478;2024-03-08T10:54:57;11.40;56.00
4677;DHT22;2352;48.180;11.478;2024-03-08T11:00:03;11.60;56.90
4677;DHT22;2352;48.180;11.478;2024-03-08T11:05:10;12.00;59.10
4677;DHT22;2352;48.180;11.478;2024-03-08T11:10:21;12.60;58.00
4677;DHT22;2352;48.180;11.478;2024-03-08T11:15:25;12.90;54.60
4677;DHT22;2352;48.180;11.478;2024-03-08T11:20:30;12.70;54.20
4677;DHT22;2352;48.180;11.478;2024-03-08T11:25:38;13.10;53.80
4677;DHT22;2352;48.180;11.478;2024-03-08T11:30:46;13.60;52.60
4677;DHT22;2352;48.180;11.478;2024-03-08T11:35:50;13.90;51.50
4677;DHT22;2352;48.180;11.478;2024-03-08T11:40:56;14.00;52.10
4677;DHT22;2352;48.180;11.478;2024-03-08T11:46:09;14.20;50.60
4677;DHT22;2352;48.180;11.478;2024-03-08T11:51:13;13.90;51.40
4677;DHT22;2352;48.180;11.478;2024-03-08T11:56:16;13.80;51.90
4677;DHT22;2352;48.180;11.478;2024-03-08T12:01:23;13.70;51.30
4677;DHT22;2352;48.180;11.478;2024-03-08T12:06:27;14.60;51.40
4677;DHT22;2352;48.180;11.478;2024-03-08T12:11:39;14.80;48.60
4677;DHT22;2352;48.180;11.478;2024-03-08T12:16:43;14.40;50.30
4677;DHT22;2352;48.180;11.478;2024-03-08T12:21:47;15.10;50.60
4677;DHT22;2352;48.180;11.478;2024-03-08T12:26:51;15.50;49.40
4677;DHT22;2352;48.180;11.478;2024-03-08T12:31:59;15.70;48.40
4677;DHT22;2352;48.180;11.478;2024-03-08T12:37:04;15.80;48.90
4677;DHT22;2352;48.180;11.478;2024-03-08T12:42:08;16.00;47.90
4677;DHT22;2352;48.180;11.478;2024-03-08T12:47:13;16.20;48.40
4677;DHT22;2352;48.180;11.478;2024-03-08T12:52:16;16.40;47.40
4677;DHT22;2352;48.180;11.478;2024-03-08T12:57:20;16.40;45.70
4677;DHT22;2352;48.180;11.478;2024-03-08T13:02:24;16.90;47.00
4677;DHT22;2352;48.180;11.478;2024-03-08T13:07:27;16.80;47.10
4677;DHT22;2352;48.180;11.478;2024-03-08T13:12:33;17.00;47.20
4677;DHT22;2352;48.180;11.478;2024-03-08T13:17:41;17.40;46.80
4677;DHT22;2352;48.180;11.478;2024-03-08T13:22:45;17.70;45.10
4677;DHT22;2352;48.180;11.478;2024-03-08T13:27:48;17.00;46.10
4677;DHT22;2352;48.180;11.478;2024-03-08T13:32:53;17.50;45.70
4677;DHT22;2352;48.180;11.478;2024-03-08T13:37:56;17.80;46.50
4677;DHT22;2352;48.180;11.478;2024-03-08T13:42:59;17.60;43.90
4677;DHT22;2352;48.180;11.478;2024-03-08T13:48:05;18.00;45.00
4677;DHT22;2352;48.180;11.478;2024-03-08T13:53:08;17.60;45.00
4677;DHT22;2352;48.180;11.478;2024-03-08T13:58:12;18.00;43.70
4677;DHT22;2352;48.180;11.478;2024-03-08T14:03:17;17.60;43.20
4677;DHT22;2352;48.180;11.478;2024-03-08T14:08:20;17.40;44.40
4677;DHT22;2352;48.180;11.478;2024-03-08T14:13:23;17.10;43.50
4677;DHT22;2352;48.180;11.478;2024-03-08T14:18:28;17.20;44.70
4677;DHT22;2352;48.180;11.478;2024-03-08T14:23:31;17.20;44.60
4677;DHT22;2352;48.180;11.478;2024-03-08T14:28:35;17.40;43.40
4677;DHT22;2352;48.180;11.478;2024-03-08T14:33:40;17.90;44.20
4677;DHT22;2352;48.180;11.478;2024-03-08T14:38:44;17.40;43.80
4677;DHT22;2352;48.180;11.478;2024-03-08T14:43:48;17.20;44.10
4677;DHT22;2352;48.180;11.478;2024-03-08T14:48:55;17.70;43.60
4677;DHT22;2352;48.180;11.478;2024-03-08T14:53:59;16.50;43.90
4677;DHT22;2352;48.180;11.478;2024-03-08T14:59:02;16.40;45.10
4677;DHT22;2352;48.180;11.478;2024-03-08T15:04:08;17.10;44.70
4677;DHT22;2352;48.180;11.478;2024-03-08T15:09:11;16.80;43.70
4677;DHT22;2352;48.180;11.478;2024-03-08T15:14:19;16.60;44.80
4677;DHT22;2352;48.180;11.478;2024-03-08T15:19:23;16.70;44.80
4677;DHT22;2352;48.180;11.478;2024-03-08T15:24:26;17.10;43.50
4677;DHT22;2352;48.180;11.478;2024-03-08T15:29:30;16.90;44.20
4677;DHT22;2352;48.180;11.478;2024-03-08T15:34:35;17.00;43.80
4677;DHT22;2352;48.180;11.478;2024-03-08T15:39:40;17.30;43.40
4677;DHT22;2352;48.180;11.478;2024-03-08T15:44:43;16.70;43.60
4677;DHT22;2352;48.180;11.478;2024-03-08T15:49:52;16.60;43.90
4677;DHT22;2352;48.180;11.478;2024-03-08T15:54:55;16.10;44.70
4677;DHT22;2352;48.180;11.478;2024-03-08T15:59:58;15.70;44.90
4677;DHT22;2352;48.180;11.478;2024-03-08T16:05:04;15.90;45.00
4677;DHT22;2352;48.180;11.478;2024-03-08T16:10:09;15.70;45.50
4677;DHT22;2352;48.180;11.478;2024-03-08T16:15:13;15.30;45.80
4677;DHT22;2352;48.180;11.478;2024-03-08T16:20:17;14.90;46.50
4677;DHT22;2352;48.180;11.478;2024-03-08T16:25:21;14.90;46.70
4677;DHT22;2352;48.180;11.478;2024-03-08T16:30:24;14.70;46.60
4677;DHT22;2352;48.180;11.478;2024-03-08T16:35:29;14.40;47.70
4677;DHT22;2352;48.180;11.478;2024-03-08T16:40:32;14.30;48.20
4677;DHT22;2352;48.180;11.478;2024-03-08T16:45:35;13.60;47.90
4677;DHT22;2352;48.180;11.478;2024-03-08T16:50:40;13.50;49.10
4677;DHT22;2352;48.180;11.478;2024-03-08T16:55:43;13.50;48.70
4677;DHT22;2352;48.180;11.478;2024-03-08T17:00:48;13.40;49.30
4677;DHT22;2352;48.180;11.478;2024-03-08T17:05:52;13.10;49.90
4677;DHT22;2352;48.180;11.478;2024-03-08T17:10:57;12.90;50.60
4677;DHT22;2352;48.180;11.478;2024-03-08T17:16:00;12.80;52.30
4677;DHT22;2352;48.180;11.478;2024-03-08T17:21:06;12.70;51.60
4677;DHT22;2352;48.180;11.478;2024-03-08T17:26:14;12.20;51.80
4677;DHT22;2352;48.180;11.478;2024-03-08T17:31:19;12.10;52.30
4677;DHT22;2352;48.180;11.478;2024-03-08T17:36:25;12.00;52.80
4677;DHT22;2352;48.180;11.478;2024-03-08T17:41:28;11.70;53.10
4677;DHT22;2352;48.180;11.478;2024-03-08T17:46:31;11.70;53.80
4677;DHT22;2352;48.180;11.478;2024-03-08T17:51:36;11.70;53.70
4677;DHT22;2352;48.180;11.478;2024-03-08T17:56:39;11.40;54.10
4677;DHT22;2352;48.180;11.478;2024-03-08T18:01:42;11.20;54.70
4677;DHT22;2352;48.180;11.478;2024-03-08T18:06:47;11.10;55.00
4677;DHT22;2352;48.180;11.478;2024-03-08T18:11:53;10.80;55.50
4677;DHT22;2352;48.180;11.478;2024-03-08T18:17:00;10.80;55.60
4677;DHT22;2352;48.180;11.478;2024-03-08T18:22:05;10.50;56.50
4677;DHT22;2352;48.180;11.478;2024-03-08T18:27:12;10.70;56.30
4677;DHT22;2352;48.180;11.478;2024-03-08T18:32:16;10.40;56.20
4677;DHT22;2352;48.180;11.478;2024-03-08T18:37:21;9.70;58.20
4677;DHT22;2352;48.180;11.478;2024-03-08T18:42:24;9.40;58.60
4677;DHT22;2352;48.180;11.478;2024-03-08T18:47:27;9.90;57.90
4677;DHT22;2352;48.180;11.478;2024-03-08T18:52:32;9.60;58.30
4677;DHT22;2352;48.180;11.478;2024-03-08T18:57:37;9.50;58.20
4677;DHT22;2352;48.180;11.478;2024-03-08T19:02:45;9.70;58.20
4677;DHT22;2352;48.180;11.478;2024-03-08T19:07:50;9.50;58.50
4677;DHT22;2352;48.180;11.478;2024-03-08T19:12:55;9.40;58.70
4677;DHT22;2352;48.180;11.478;2024-03-08T19:18:01;9.50;58.50
4677;DHT22;2352;48.180;11.478;2024-03-08T19:23:08;9.10;58.90
4677;DHT22;2352;48.180;11.478;2024-03-08T19:28:12;9.30;58.90
4677;DHT22;2352;48.180;11.478;2024-03-08T19:33:17;9.40;58.60
4677;DHT22;2352;48.180;11.478;2024-03-08T19:38:24;9.30;58.70
4677;DHT22;2352;48.180;11.478;2024-03-08T19:43:28;9.10;59.00
4677;DHT22;2352;48.180;11.478;2024-03-08T19:48:32;9.20;58.80
4677;DHT22;2352;48.180;11.478;2024-03-08T19:53:36;9.10;59.10
4677;DHT22;2352;48.180;11.478;2024-03-08T19:58:40;9.10;58.90
4677;DHT22;2352;48.180;11.478;2024-03-08T20:03:44;8.90;59.20
4677;DHT22;2352;48.180;11.478;2024-03-08T20:08:48;8.80;59.60
4677;DHT22;2352;48.180;11.478;2024-03-08T20:13:51;8.80;59.50
4677;DHT22;2352;48.180;11.478;2024-03-08T20:18:54;8.70;59.50
4677;DHT22;2352;48.180;11.478;2024-03-08T20:24:04;8.70;59.60
4677;DHT22;2352;48.180;11.478;2024-03-08T20:29:11;8.60;59.50
4677;DHT22;2352;48.180;11.478;2024-03-08T20:34:14;8.60;59.70
4677;DHT22;2352;48.180;11.478;2024-03-08T20:39:21;8.40;59.80
4677;DHT22;2352;48.180;11.478;2024-03-08T20:44:24;8.30;60.10
4677;DHT22;2352;48.180;11.478;2024-03-08T20:49:27;8.30;60.20
4677;DHT22;2352;48.180;11.478;2024-03-08T20:54:31;8.30;60.10
4677;DHT22;2352;48.180;11.478;2024-03-08T20:59:37;8.20;59.90
4677;DHT22;2352;48.180;11.478;2024-03-08T21:04:40;8.10;60.50
4677;DHT22;2352;48.180;11.478;2024-03-08T21:09:45;8.00;60.30
4677;DHT22;2352;48.180;11.478;2024-03-08T21:14:51;7.90;60.30
4677;DHT22;2352;48.180;11.478;2024-03-08T21:19:54;8.10;60.20
4677;DHT22;2352;48.180;11.478;2024-03-08T21:24:59;7.90;60.30
4677;DHT22;2352;48.180;11.478;2024-03-08T21:30:06;7.90;60.30
4677;DHT22;2352;48.180;11.478;2024-03-08T21:35:10;7.70;60.90
4677;DHT22;2352;48.180;11.478;2024-03-08T21:40:15;7.60;61.00
4677;DHT22;2352;48.180;11.478;2024-03-08T21:45:23;7.60;60.90
4677;DHT22;2352;48.180;11.478;2024-03-08T21:50:29;7.40;61.30
4677;DHT22;2352;48.180;11.478;2024-03-08T21:55:33;7.40;61.40
4677;DHT22;2352;48.180;11.478;2024-03-08T22:00:36;7.40;60.80
4677;DHT22;2352;48.180;11.478;2024-03-08T22:05:43;7.40;61.20
4677;DHT22;2352;48.180;11.478;2024-03-08T22:10:48;7.30;61.30
4677;DHT22;2352;48.180;11.478;2024-03-08T22:15:51;7.10;61.30
4677;DHT22;2352;48.180;11.478;2024-03-08T22:20:54;7.00;61.80
4677;DHT22;2352;48.180;11.478;2024-03-08T22:25:58;6.90;61.80
4677;DHT22;2352;48.180;11.478;2024-03-08T22:31:01;7.00;61.70
4677;DHT22;2352;48.180;11.478;2024-03-08T22:36:08;6.90;61.50
4677;DHT22;2352;48.180;11.478;2024-03-08T22:41:12;6.90;61.50
4677;DHT22;2352;48.180;11.478;2024-03-08T22:46:17;6.90;61.70
4677;DHT22;2352;48.180;11.478;2024-03-08T22:51:19;6.90;62.00
4677;DHT22;2352;48.180;11.478;2024-03-08T22:56:28;6.80;61.80
4677;DHT22;2352;48.180;11.478;2024-03-08T23:01:33;6.70;62.20
4677;DHT22;2352;48.180;11.478;2024-03-08T23:06:36;6.60;62.20
4677;DHT22;2352;48.180;11.478;2024-03-08T23:11:40;6.60;62.30
4677;DHT22;2352;48.180;11.478;2024-03-08T23:16:44;6.50;62.20
4677;DHT22;2352;48.180;11.478;2024-03-08T23:21:48;6.40;62.70
4677;DHT22;2352;48.180;11.478;2024-03-08T23:26:53;6.50;62.70
4677;DHT22;2352;48.180;11.478;2024-03-08T23:31:58;6.40;62.70
4677;DHT22;2352;48.180;11.478;2024-03-08T23:37:01;6.40;62.90
4677;DHT22;2352;48.180;11.478;2024-03-08T23:42:06;6.30;62.80
4677;DHT22;2352;48.180;11.478;2024-03-08T23:47:11;6.30;63.20
4677;DHT22;2352;48.180;11.478;2024-03-08T23:52:14;6.30;63.10
4677;DHT22;2352;48.180;11.478;2024-03-08T23:57:19;6.20;63.00
